World Yacht's Princess — WCG6143 — position and weather

sailwx.info

Track history (hours):
 
Tides and Currents Weather Stations Pressure Air Temp Water Temp Dewpoint Dewpoint Depression Visibility Wind Speed Wind Dir Waves Ship Positions

World Yacht's Princess

Owner: World Yacht LLC Pier 81 West 41 Street New York ,NY 10036, NEW YORK, NY. More information available from US FCC via Universal Licensing System and Coast Guard Vessel Documentation Center.

Last reported at 2017-Nov-19 01:39 UTC. Time now 2017-Nov-19 18:24 UTC.
Position N 40°46' W 074°00'.

Length 42 m; draft 2.3 m.

Type: Passenger vessel. MMSI: 366929730.

Date/timePositionNaut miles runAvg speedWind from/ knotsBaromVisibWave heightAir tempDewpointWater temp
2017-Nov-19 01:39N 40°46' W 074°00'0 0.0
2017-Nov-19 01:30N 40°46' W 074°00'1 2.3
2017-Nov-19 01:01N 40°45' W 074°01'4 7.2
2017-Nov-19 00:30N 40°41' W 074°02'3 5.7
2017-Nov-19 00:00N 40°44' W 074°01'2 3.5
2017-Nov-18 23:27N 40°46' W 074°00'0 0.0
2017-Nov-18 23:00N 40°46' W 074°00'0 0.0
2017-Nov-18 22:30N 40°46' W 074°00'0 0.0
2017-Nov-18 22:00N 40°46' W 074°00'0 0.0
2017-Nov-18 21:30N 40°46' W 074°00'0 0.0
2017-Nov-18 21:00N 40°46' W 074°00'0 0.0
2017-Nov-18 20:30N 40°46' W 074°00'0 0.0
2017-Nov-18 20:00N 40°46' W 074°00'0 0.0
2017-Nov-18 19:30N 40°46' W 074°00'0 0.0
2017-Nov-18 01:37N 40°46' W 074°00'0 0.1
2017-Nov-18 01:28N 40°46' W 074°00'2 3.9
2017-Nov-18 01:00N 40°44' W 074°01'3 5.5
2017-Nov-18 00:30N 40°41' W 074°02'3 5.6
2017-Nov-18 00:00N 40°44' W 074°01'2 3.3
2017-Nov-17 23:28N 40°46' W 074°00'0 0.0
2017-Nov-17 22:58N 40°46' W 074°00'0 0.0
2017-Nov-17 22:28N 40°46' W 074°00'0 0.0
2017-Nov-17 21:58N 40°46' W 074°00'0 0.0
2017-Nov-17 21:28N 40°46' W 074°00'0 0.0
2017-Nov-17 20:58N 40°46' W 074°00'0 0.0
2017-Nov-17 20:28N 40°46' W 074°00'0 0.0
2017-Nov-17 19:58N 40°46' W 074°00'0 0.0
2017-Nov-17 01:35N 40°46' W 074°00'0 0.0
2017-Nov-17 01:29N 40°46' W 074°00'2 4.3
2017-Nov-17 01:00N 40°44' W 074°01'2 5.0
2017-Nov-17 00:30N 40°41' W 074°02'3 6.0
2017-Nov-17 00:00N 40°44' W 074°01'2 2.9
2017-Nov-16 23:28N 40°46' W 074°00'0 0.0
2017-Nov-16 22:58N 40°46' W 074°00'0 0.0
2017-Nov-16 22:28N 40°46' W 074°00'0 0.0
2017-Nov-16 21:58N 40°46' W 074°00'0 0.0
2017-Nov-16 21:28N 40°46' W 074°00'0 0.0
2017-Nov-16 20:55N 40°46' W 074°00'  
2017-Nov-13 01:37N 40°46' W 074°00'0 0.3
2017-Nov-13 01:28N 40°46' W 074°00'2 4.5
2017-Nov-13 01:00N 40°44' W 074°01'3 5.2
2017-Nov-13 00:31N 40°41' W 074°02'3 5.3
2017-Nov-13 00:01N 40°44' W 074°01'2 3.7
2017-Nov-12 23:28N 40°46' W 074°00'0 0.0
2017-Nov-12 22:58N 40°46' W 074°00'0 0.0
2017-Nov-12 22:28N 40°46' W 074°00'0 0.0
2017-Nov-12 21:58N 40°46' W 074°00'0 0.0
2017-Nov-12 21:28N 40°46' W 074°00'0 0.0
2017-Nov-12 20:58N 40°46' W 074°00'0 0.0
2017-Nov-12 20:28N 40°46' W 074°00'0 0.0
2017-Nov-12 19:52N 40°46' W 074°00'0 0.0
2017-Nov-12 19:28N 40°46' W 074°00'0 0.0
2017-Nov-12 01:46N 40°46' W 074°00'0 1.7
2017-Nov-12 01:30N 40°45' W 074°01'2 4.1
2017-Nov-12 01:00N 40°43' W 074°01'2 4.5
2017-Nov-12 00:30N 40°41' W 074°02'3 5.8
2017-Nov-12 00:00N 40°44' W 074°01'2 3.2
2017-Nov-11 23:27N 40°46' W 074°00'0 0.0
2017-Nov-11 23:00N 40°46' W 074°00'0 0.0
2017-Nov-11 22:30N 40°46' W 074°00'0 0.0
2017-Nov-11 22:00N 40°46' W 074°00'0 0.0
2017-Nov-11 21:30N 40°46' W 074°00'0 0.0
2017-Nov-11 21:00N 40°46' W 074°00'0 0.0
2017-Nov-11 20:30N 40°46' W 074°00'0 0.0
2017-Nov-11 20:00N 40°46' W 074°00'0 0.0
2017-Nov-10 22:21N 40°46' W 074°00'0 0.0
2017-Nov-10 22:00N 40°46' W 074°00'0 0.0
2017-Nov-10 21:30N 40°46' W 074°00'0 0.0
2017-Nov-10 21:00N 40°46' W 074°00'0 0.0
2017-Nov-10 20:30N 40°46' W 074°00'0 0.0
2017-Nov-10 20:00N 40°46' W 074°00'0 0.0
2017-Nov-10 19:30N 40°46' W 074°00'0 0.0
2017-Nov-10 01:56N 40°46' W 074°00'1 3.0
2017-Nov-10 01:30N 40°45' W 074°01'2 4.1
2017-Nov-10 01:00N 40°43' W 074°02'2 2.9
2017-Nov-10 00:29N 40°41' W 074°02'3 6.2
2017-Nov-10 00:00N 40°44' W 074°01'2 3.9
2017-Nov-09 23:30N 40°46' W 074°00'0 0.0
2017-Nov-09 23:00N 40°46' W 074°00'0 0.0
2017-Nov-09 22:27N 40°46' W 074°00'0 0.0
2017-Nov-09 22:00N 40°46' W 074°00'0 0.0
2017-Nov-09 21:30N 40°46' W 074°00'0 0.0
2017-Nov-09 20:57N 40°46' W 074°00'0 0.0
2017-Nov-09 20:27N 40°46' W 074°00'0 0.0
2017-Nov-09 19:57N 40°46' W 074°00'0 0.0
2017-Nov-09 19:30N 40°46' W 074°00'  
Track history (hours):
 
Tides and Currents Weather Stations Pressure Air Temp Water Temp Dewpoint Dewpoint Depression Visibility Wind Speed Wind Dir Waves Ship Positions

World Yacht's Princess

Owner: World Yacht LLC Pier 81 West 41 Street New York ,NY 10036, NEW YORK, NY. More information available from US FCC via Universal Licensing System and Coast Guard Vessel Documentation Center.

Last reported at 2017-Nov-19 01:39 UTC. Time now 2017-Nov-19 18:24 UTC.
Position N 40°46' W 074°00'.

Length 42 m; draft 2.3 m.

Type: Passenger vessel. MMSI: 366929730.

Date/timePositionNaut miles runAvg speedWind from/ knotsBaromVisibWave heightAir tempDewpointWater temp
2017-Nov-19 01:39N 40°46' W 074°00'0 0.0
2017-Nov-19 01:30N 40°46' W 074°00'1 2.3
2017-Nov-19 01:01N 40°45' W 074°01'4 7.2
2017-Nov-19 00:30N 40°41' W 074°02'3 5.7
2017-Nov-19 00:00N 40°44' W 074°01'2 3.5
2017-Nov-18 23:27N 40°46' W 074°00'0 0.0
2017-Nov-18 23:00N 40°46' W 074°00'0 0.0
2017-Nov-18 22:30N 40°46' W 074°00'0 0.0
2017-Nov-18 22:00N 40°46' W 074°00'0 0.0
2017-Nov-18 21:30N 40°46' W 074°00'0 0.0
2017-Nov-18 21:00N 40°46' W 074°00'0 0.0
2017-Nov-18 20:30N 40°46' W 074°00'0 0.0
2017-Nov-18 20:00N 40°46' W 074°00'0 0.0
2017-Nov-18 19:30N 40°46' W 074°00'0 0.0
2017-Nov-18 01:37N 40°46' W 074°00'0 0.1
2017-Nov-18 01:28N 40°46' W 074°00'2 3.9
2017-Nov-18 01:00N 40°44' W 074°01'3 5.5
2017-Nov-18 00:30N 40°41' W 074°02'3 5.6
2017-Nov-18 00:00N 40°44' W 074°01'2 3.3
2017-Nov-17 23:28N 40°46' W 074°00'0 0.0
2017-Nov-17 22:58N 40°46' W 074°00'0 0.0
2017-Nov-17 22:28N 40°46' W 074°00'0 0.0
2017-Nov-17 21:58N 40°46' W 074°00'0 0.0
2017-Nov-17 21:28N 40°46' W 074°00'0 0.0
2017-Nov-17 20:58N 40°46' W 074°00'0 0.0
2017-Nov-17 20:28N 40°46' W 074°00'0 0.0
2017-Nov-17 19:58N 40°46' W 074°00'0 0.0
2017-Nov-17 01:35N 40°46' W 074°00'0 0.0
2017-Nov-17 01:29N 40°46' W 074°00'2 4.3
2017-Nov-17 01:00N 40°44' W 074°01'2 5.0
2017-Nov-17 00:30N 40°41' W 074°02'3 6.0
2017-Nov-17 00:00N 40°44' W 074°01'2 2.9
2017-Nov-16 23:28N 40°46' W 074°00'0 0.0
2017-Nov-16 22:58N 40°46' W 074°00'0 0.0
2017-Nov-16 22:28N 40°46' W 074°00'0 0.0
2017-Nov-16 21:58N 40°46' W 074°00'0 0.0
2017-Nov-16 21:28N 40°46' W 074°00'0 0.0
2017-Nov-16 20:55N 40°46' W 074°00'  
2017-Nov-13 01:37N 40°46' W 074°00'0 0.3
2017-Nov-13 01:28N 40°46' W 074°00'2 4.5
2017-Nov-13 01:00N 40°44' W 074°01'3 5.2
2017-Nov-13 00:31N 40°41' W 074°02'3 5.3
2017-Nov-13 00:01N 40°44' W 074°01'2 3.7
2017-Nov-12 23:28N 40°46' W 074°00'0 0.0
2017-Nov-12 22:58N 40°46' W 074°00'0 0.0
2017-Nov-12 22:28N 40°46' W 074°00'0 0.0
2017-Nov-12 21:58N 40°46' W 074°00'0 0.0
2017-Nov-12 21:28N 40°46' W 074°00'0 0.0
2017-Nov-12 20:58N 40°46' W 074°00'0 0.0
2017-Nov-12 20:28N 40°46' W 074°00'0 0.0
2017-Nov-12 19:52N 40°46' W 074°00'0 0.0
2017-Nov-12 19:28N 40°46' W 074°00'0 0.0
2017-Nov-12 01:46N 40°46' W 074°00'0 1.7
2017-Nov-12 01:30N 40°45' W 074°01'2 4.1
2017-Nov-12 01:00N 40°43' W 074°01'2 4.5
2017-Nov-12 00:30N 40°41' W 074°02'3 5.8
2017-Nov-12 00:00N 40°44' W 074°01'2 3.2
2017-Nov-11 23:27N 40°46' W 074°00'0 0.0
2017-Nov-11 23:00N 40°46' W 074°00'0 0.0
2017-Nov-11 22:30N 40°46' W 074°00'0 0.0
2017-Nov-11 22:00N 40°46' W 074°00'0 0.0
2017-Nov-11 21:30N 40°46' W 074°00'0 0.0
2017-Nov-11 21:00N 40°46' W 074°00'0 0.0
2017-Nov-11 20:30N 40°46' W 074°00'0 0.0
2017-Nov-11 20:00N 40°46' W 074°00'0 0.0
2017-Nov-10 22:21N 40°46' W 074°00'0 0.0
2017-Nov-10 22:00N 40°46' W 074°00'0 0.0
2017-Nov-10 21:30N 40°46' W 074°00'0 0.0
2017-Nov-10 21:00N 40°46' W 074°00'0 0.0
2017-Nov-10 20:30N 40°46' W 074°00'0 0.0
2017-Nov-10 20:00N 40°46' W 074°00'0 0.0
2017-Nov-10 19:30N 40°46' W 074°00'0 0.0
2017-Nov-10 01:56N 40°46' W 074°00'1 3.0
2017-Nov-10 01:30N 40°45' W 074°01'2 4.1
2017-Nov-10 01:00N 40°43' W 074°02'2 2.9
2017-Nov-10 00:29N 40°41' W 074°02'3 6.2
2017-Nov-10 00:00N 40°44' W 074°01'2 3.9
2017-Nov-09 23:30N 40°46' W 074°00'0 0.0
2017-Nov-09 23:00N 40°46' W 074°00'0 0.0
2017-Nov-09 22:27N 40°46' W 074°00'0 0.0
2017-Nov-09 22:00N 40°46' W 074°00'0 0.0
2017-Nov-09 21:30N 40°46' W 074°00'0 0.0
2017-Nov-09 20:57N 40°46' W 074°00'0 0.0
2017-Nov-09 20:27N 40°46' W 074°00'0 0.0
2017-Nov-09 19:57N 40°46' W 074°00'0 0.0
2017-Nov-09 19:30N 40°46' W 074°00'  

Dump ship's entire track history